createdAt,value
2023-01-25T00:03:35.486Z,44.38
2023-01-25T00:08:42.887Z,43.27
2023-01-25T00:13:50.500Z,43.40
2023-01-25T00:18:56.917Z,42.30
2023-01-25T00:24:05.141Z,43.13
2023-01-25T00:29:15.450Z,42.80
2023-01-25T00:34:32.528Z,42.73
2023-01-25T00:39:39.892Z,42.73
2023-01-25T00:44:49.891Z,44.57
2023-01-25T00:49:57.106Z,42.90
2023-01-25T00:55:04.647Z,43.03
2023-01-25T01:00:12.726Z,43.07
2023-01-25T01:05:20.000Z,42.15
2023-01-25T01:10:28.637Z,43.03
2023-01-25T01:15:40.026Z,43.23
2023-01-25T01:20:56.834Z,42.60
2023-01-25T01:26:06.064Z,43.15
2023-01-25T01:31:24.569Z,42.27
2023-01-25T01:36:32.821Z,44.27
2023-01-25T01:41:40.707Z,43.00
2023-01-25T01:46:58.689Z,42.80
2023-01-25T01:52:13.531Z,43.07
2023-01-25T01:57:34.570Z,43.00
2023-01-25T02:02:42.809Z,42.47
2023-01-25T02:07:50.828Z,43.07
2023-01-25T02:12:58.824Z,42.10
2023-01-25T02:18:06.337Z,42.07
2023-01-25T02:23:27.917Z,43.47
2023-01-25T02:28:54.526Z,42.53
2023-01-25T02:34:01.436Z,43.20
2023-01-25T02:39:20.674Z,43.00
2023-01-25T02:44:34.441Z,42.40
2023-01-25T02:49:41.705Z,44.13
2023-01-25T02:54:48.978Z,43.17
2023-01-25T02:59:56.389Z,42.10
2023-01-25T03:05:03.768Z,42.77
2023-01-25T03:10:12.332Z,43.77
2023-01-25T03:15:19.775Z,43.37
2023-01-25T03:20:26.358Z,43.37
2023-01-25T03:25:33.329Z,44.00
2023-01-25T03:35:46.040Z,43.10
2023-01-25T03:40:53.362Z,45.63
2023-01-25T03:51:10.023Z,46.18
2023-01-25T04:01:27.418Z,51.55
2023-01-25T04:06:34.775Z,48.57
2023-01-25T04:11:41.909Z,44.57
2023-01-25T04:16:50.070Z,44.77
2023-01-25T04:21:57.500Z,43.70
2023-01-25T04:27:04.677Z,43.97
2023-01-25T04:32:12.913Z,44.27
2023-01-25T04:37:19.602Z,43.50
2023-01-25T04:42:26.557Z,43.17
2023-01-25T04:47:33.962Z,44.35
2023-01-25T04:52:41.327Z,43.60
2023-01-25T04:57:51.209Z,45.33
2023-01-25T05:02:58.366Z,45.03
2023-01-25T05:08:05.105Z,45.70
2023-01-25T05:13:13.220Z,45.92
2023-01-25T05:18:21.661Z,45.50
2023-01-25T05:23:28.733Z,44.25
2023-01-25T05:28:35.989Z,44.20
2023-01-25T05:33:44.660Z,45.27
2023-01-25T05:38:53.082Z,43.55
2023-01-25T05:43:59.966Z,43.30
2023-01-25T05:49:07.688Z,43.47
2023-01-25T05:54:18.190Z,43.00
2023-01-25T05:59:26.649Z,43.30
2023-01-25T06:04:33.909Z,42.62
2023-01-25T06:09:41.114Z,43.20
2023-01-25T06:14:48.446Z,43.77
2023-01-25T06:19:55.465Z,43.40
2023-01-25T06:25:02.346Z,44.00
2023-01-25T06:30:10.568Z,44.07
2023-01-25T06:35:20.109Z,43.83
2023-01-25T06:40:29.598Z,44.40
2023-01-25T06:45:36.990Z,43.67
2023-01-25T06:50:44.592Z,44.00
2023-01-25T06:56:06.228Z,43.63
2023-01-25T07:01:21.266Z,44.50
2023-01-25T07:06:32.369Z,43.70
2023-01-25T07:11:40.184Z,42.93
2023-01-25T07:16:47.336Z,42.43
2023-01-25T07:27:00.176Z,43.20
2023-01-25T07:32:07.378Z,44.07
2023-01-25T07:37:14.797Z,43.03
2023-01-25T07:42:22.235Z,43.17
2023-01-25T07:47:29.969Z,43.35
2023-01-25T07:52:36.915Z,43.50
2023-01-25T07:57:43.890Z,44.40
2023-01-25T08:02:54.930Z,44.87
2023-01-25T08:08:01.649Z,45.90
2023-01-25T08:13:09.255Z,45.97
2023-01-25T08:18:15.792Z,47.17
2023-01-25T08:28:28.427Z,46.13
2023-01-25T08:38:41.719Z,44.30
2023-01-25T08:43:49.795Z,43.85
2023-01-25T08:48:59.949Z,43.87
2023-01-25T08:54:09.612Z,44.00
2023-01-25T08:59:16.828Z,44.03
2023-01-25T09:04:25.675Z,45.10
2023-01-25T09:09:32.262Z,43.17
2023-01-25T09:14:40.977Z,44.42
2023-01-25T09:24:56.718Z,45.63
2023-01-25T09:30:04.378Z,45.70
2023-01-25T09:35:11.429Z,45.47
2023-01-25T09:40:24.105Z,45.92
2023-01-25T09:45:38.621Z,46.57
2023-01-25T09:51:16.607Z,46.33
2023-01-25T09:56:35.341Z,45.65
2023-01-25T10:02:06.124Z,46.30
2023-01-25T10:07:36.255Z,46.98
2023-01-25T10:12:43.274Z,46.97
2023-01-25T10:18:07.231Z,47.47
2023-01-25T10:23:53.543Z,47.33
2023-01-25T10:29:29.693Z,46.83
2023-01-25T10:34:55.070Z,47.40
2023-01-25T10:39:57.809Z,49.13
2023-01-25T10:45:15.713Z,47.70
2023-01-25T10:50:55.278Z,47.62
2023-01-25T10:56:07.398Z,48.27
2023-01-25T11:01:30.548Z,49.03
2023-01-25T11:06:44.201Z,48.73
2023-01-25T11:12:03.814Z,50.03
2023-01-25T11:17:25.653Z,48.53
2023-01-25T11:22:32.771Z,50.30
2023-01-25T11:27:39.397Z,49.77
2023-01-25T11:32:46.527Z,48.87
2023-01-25T11:38:16.029Z,48.67
2023-01-25T11:43:58.020Z,49.80
2023-01-25T11:49:14.803Z,49.50
2023-01-25T11:59:58.314Z,50.70
2023-01-25T12:05:21.491Z,50.03
2023-01-25T12:10:34.014Z,50.92
2023-01-25T12:16:02.973Z,50.20
2023-01-25T12:21:41.618Z,50.03
2023-01-25T12:26:59.609Z,48.50
2023-01-25T12:32:22.341Z,48.87
2023-01-25T12:37:33.736Z,48.50
2023-01-25T12:42:48.211Z,49.23
2023-01-25T12:48:24.199Z,50.13
2023-01-25T12:53:35.582Z,49.93
2023-01-25T12:59:11.743Z,49.30
2023-01-25T13:04:51.749Z,48.13
2023-01-25T13:10:13.216Z,47.77
2023-01-25T13:15:38.914Z,48.10
2023-01-25T13:20:50.327Z,49.83
2023-01-25T13:26:25.966Z,48.47
2023-01-25T13:31:52.792Z,48.53
2023-01-25T13:36:58.344Z,49.30
2023-01-25T13:42:11.788Z,49.63
2023-01-25T13:47:29.392Z,48.60
2023-01-25T13:57:44.563Z,48.98
2023-01-25T14:02:55.840Z,49.07
2023-01-25T14:08:04.227Z,49.08
2023-01-25T14:13:15.483Z,49.27
2023-01-25T14:18:23.696Z,49.45
2023-01-25T14:23:34.501Z,48.63
2023-01-25T14:28:51.231Z,48.13
2023-01-25T14:33:57.853Z,49.67
2023-01-25T14:39:08.083Z,51.50
2023-01-25T14:44:17.933Z,50.40
2023-01-25T14:49:28.556Z,53.70
2023-01-25T14:54:41.072Z,52.37
2023-01-25T14:59:51.479Z,48.60
2023-01-25T15:05:18.415Z,49.57
2023-01-25T15:10:30.545Z,49.17
2023-01-25T15:15:38.728Z,48.37
2023-01-25T15:20:45.868Z,50.60
2023-01-25T15:25:58.837Z,48.70
2023-01-25T15:31:07.520Z,50.97
2023-01-25T15:36:17.773Z,49.50
2023-01-25T15:41:25.011Z,49.90
2023-01-25T15:46:33.793Z,51.33
2023-01-25T15:51:40.947Z,49.77
2023-01-25T15:56:52.869Z,50.43
2023-01-25T16:02:00.591Z,50.47
2023-01-25T16:07:07.829Z,50.07
2023-01-25T16:12:15.866Z,49.87
2023-01-25T16:17:24.981Z,48.90
2023-01-25T16:22:33.254Z,51.73
2023-01-25T16:27:40.291Z,51.47
2023-01-25T16:37:54.258Z,50.53
2023-01-25T16:43:01.607Z,51.27
2023-01-25T16:48:10.903Z,51.03
2023-01-25T16:53:17.974Z,53.45
2023-01-25T16:58:25.577Z,51.60
2023-01-25T17:03:32.222Z,51.13
2023-01-25T17:08:39.528Z,49.18
2023-01-25T17:13:50.608Z,50.70
2023-01-25T17:19:01.408Z,51.70
2023-01-25T17:24:10.011Z,51.73
2023-01-25T17:29:16.925Z,53.43
2023-01-25T17:34:24.799Z,51.48
2023-01-25T17:39:33.331Z,52.00
2023-01-25T17:44:40.710Z,51.00
2023-01-25T17:49:47.379Z,52.10
2023-01-25T17:54:54.368Z,52.63
2023-01-25T18:00:02.504Z,53.97
2023-01-25T18:05:11.315Z,51.83
2023-01-25T18:10:19.256Z,52.27
2023-01-25T18:15:27.219Z,54.70
2023-01-25T18:20:34.590Z,54.37
2023-01-25T18:26:14.725Z,61.50
2023-01-25T18:31:55.908Z,50.83
2023-01-25T18:37:06.606Z,53.63
2023-01-25T18:42:14.999Z,54.80
2023-01-25T18:47:24.796Z,53.03
2023-01-25T18:52:32.672Z,64.80
2023-01-25T18:57:40.337Z,51.93
2023-01-25T19:02:47.063Z,53.57
2023-01-25T19:07:54.125Z,55.57
2023-01-25T19:13:01.900Z,56.17
2023-01-25T19:18:09.117Z,55.10
2023-01-25T19:23:16.355Z,54.27
2023-01-25T19:28:24.431Z,56.42
2023-01-25T19:33:32.024Z,56.37
2023-01-25T19:38:41.631Z,55.77
2023-01-25T19:43:48.861Z,54.07
2023-01-25T19:48:57.177Z,58.27
2023-01-25T19:54:11.557Z,54.50
2023-01-25T19:59:26.114Z,54.67
2023-01-25T20:04:35.337Z,53.20
2023-01-25T20:09:42.086Z,54.80
2023-01-25T20:14:48.907Z,54.23
2023-01-25T20:19:55.807Z,51.28
2023-01-25T20:25:03.854Z,51.00
2023-01-25T20:30:12.351Z,49.33
2023-01-25T20:35:19.542Z,49.23
2023-01-25T20:40:26.760Z,51.07
2023-01-25T20:45:35.077Z,50.47
2023-01-25T20:50:43.669Z,51.57
2023-01-25T20:55:56.193Z,49.70
2023-01-25T21:01:02.834Z,48.90
2023-01-25T21:06:10.431Z,51.57
2023-01-25T21:11:17.592Z,50.67
2023-01-25T21:16:24.993Z,51.68
2023-01-25T21:21:36.199Z,52.67
2023-01-25T21:26:45.686Z,51.73
2023-01-25T21:31:54.550Z,52.80
2023-01-25T21:37:01.901Z,52.60
2023-01-25T21:42:11.151Z,52.40
2023-01-25T21:47:29.914Z,51.93
2023-01-25T21:52:26.855Z,65.63
2023-01-25T21:57:33.711Z,52.60
2023-01-25T22:02:40.554Z,52.30
2023-01-25T22:07:47.298Z,51.70
2023-01-25T22:12:54.594Z,52.70
2023-01-25T22:18:02.695Z,49.97
2023-01-25T22:23:09.208Z,52.03
2023-01-25T22:28:18.692Z,50.97
2023-01-25T22:33:26.161Z,53.70
2023-01-25T22:38:32.851Z,57.60
2023-01-25T22:43:40.729Z,50.17
2023-01-25T22:48:49.162Z,51.37
2023-01-25T22:54:01.120Z,53.43
2023-01-25T22:59:08.312Z,52.93
2023-01-25T23:04:16.292Z,59.17
2023-01-25T23:09:22.933Z,54.42
2023-01-25T23:19:53.669Z,51.80
2023-01-25T23:25:00.593Z,52.40
2023-01-25T23:35:15.418Z,50.70
2023-01-25T23:40:23.067Z,51.92
2023-01-25T23:45:29.849Z,51.70
2023-01-25T23:50:37.000Z,54.23
2023-01-25T23:55:45.551Z,52.57
